Time;durP1;ratioP1;P1;durP2;ratioP2;P2;SDS_P1;SDS_P2;PMS_P1;PMS_P2;Temp;Humidity;BMP_temperature;BMP_pressure;BME280_temperature;BME280_humidity;BME280_pressure;Samples;Min_cycle;Max_cycle;Signal;HPM_P1;HPM_P2
2023/04/13 00:00:50;;;;;;;2.92;1.73;;;;;;;;;;5055416;28;20032;-74
2023/04/13 00:03:15;;;;;;;2.10;1.60;;;;;;;;;;5055112;28;20528;-74
2023/04/13 00:05:42;;;;;;;3.35;1.95;;;;;;;;;;5055477;28;20361;-74
2023/04/13 00:08:07;;;;;;;2.08;1.63;;;;;;;;;;5053835;28;20041;-74
2023/04/13 00:10:40;;;;;;;2.20;1.80;;;;;;;;;;5055041;28;20029;-73
2023/04/13 00:13:07;;;;;;;2.70;2.00;;;;;;;;;;5054786;28;20029;-74
2023/04/13 00:15:35;;;;;;;2.80;1.88;;;;;;;;;;5055294;28;20032;-74
2023/04/13 00:18:01;;;;;;;3.50;1.90;;;;;;;;;;5053606;28;20549;-73
2023/04/13 00:20:26;;;;;;;3.85;1.98;;;;;;;;;;5055197;28;20033;-73
2023/04/13 00:22:51;;;;;;;2.40;1.70;;;;;;;;;;5053550;28;20526;-74
2023/04/13 00:25:17;;;;;;;1.92;1.48;;;;;;;;;;5053582;28;20036;-74
2023/04/13 00:27:42;;;;;;;1.75;1.50;;;;;;;;;;5054803;28;20017;-74
2023/04/13 00:30:13;;;;;;;1.50;1.30;;;;;;;;;;5053470;28;20025;-74
2023/04/13 00:32:41;;;;;;;2.17;1.13;;;;;;;;;;5054930;28;20102;-75
2023/04/13 00:35:07;;;;;;;2.53;1.27;;;;;;;;;;5054924;28;20048;-74
2023/04/13 00:37:32;;;;;;;1.70;1.20;;;;;;;;;;5053924;28;20111;-75
2023/04/13 00:39:58;;;;;;;1.60;1.30;;;;;;;;;;5054681;28;20499;-74
2023/04/13 00:42:24;;;;;;;1.40;1.30;;;;;;;;;;5054499;28;20029;-73
2023/04/13 00:44:50;;;;;;;1.30;1.20;;;;;;;;;;5054668;28;20029;-75
2023/04/13 00:47:25;;;;;;;2.97;1.10;;;;;;;;;;5054656;28;20391;-75
2023/04/13 00:49:50;;;;;;;1.33;1.05;;;;;;;;;;5054441;28;20377;-75
2023/04/13 00:52:17;;;;;;;1.77;1.10;;;;;;;;;;5054504;28;20028;-75
2023/04/13 00:54:42;;;;;;;1.67;1.17;;;;;;;;;;5054173;28;20104;-74
2023/04/13 00:57:07;;;;;;;1.95;1.10;;;;;;;;;;5054501;28;20444;-75
2023/04/13 00:59:33;;;;;;;0.90;0.85;;;;;;;;;;5054099;28;20021;-73
2023/04/13 01:02:00;;;;;;;0.98;0.90;;;;;;;;;;5054110;28;20025;-72
2023/04/13 01:04:29;;;;;;;1.00;0.90;;;;;;;;;;5053036;28;20029;-75
2023/04/13 01:07:40;;;;;;;0.98;0.90;;;;;;;;;;5054024;28;20031;-74
2023/04/13 01:10:25;;;;;;;0.90;0.85;;;;;;;;;;5032194;28;20408;-74
2023/04/13 01:13:15;;;;;;;1.17;0.90;;;;;;;;;;5053697;28;20044;-73
2023/04/13 01:15:48;;;;;;;1.60;1.00;;;;;;;;;;5053938;28;20024;-74
2023/04/13 01:18:15;;;;;;;1.10;0.90;;;;;;;;;;5053872;28;20025;-74
2023/04/13 01:20:44;;;;;;;2.75;0.80;;;;;;;;;;5054065;28;20107;-73
2023/04/13 01:23:31;;;;;;;1.08;0.98;;;;;;;;;;5053686;28;20029;-73
2023/04/13 01:26:01;;;;;;;1.70;0.80;;;;;;;;;;5053776;28;20078;-73
2023/04/13 01:28:27;;;;;;;1.80;0.90;;;;;;;;;;5053751;28;20369;-74
2023/04/13 01:30:54;;;;;;;1.38;0.85;;;;;;;;;;5053742;28;20033;-74
2023/04/13 01:33:20;;;;;;;0.93;0.85;;;;;;;;;;5053706;28;20614;-74
2023/04/13 01:35:46;;;;;;;0.77;0.73;;;;;;;;;;5052583;28;20027;-74
2023/04/13 01:38:13;;;;;;;0.60;0.60;;;;;;;;;;5053590;28;20032;-74
2023/04/13 01:40:40;;;;;;;1.05;0.77;;;;;;;;;;5052229;28;20021;-71
2023/04/13 01:43:07;;;;;;;2.47;0.68;;;;;;;;;;5053518;28;20373;-73
2023/04/13 01:45:45;;;;;;;2.53;0.98;;;;;;;;;;5051796;28;20377;-74
2023/04/13 01:48:17;;;;;;;1.95;0.95;;;;;;;;;;5052342;28;20013;-74
2023/04/13 01:50:50;;;;;;;1.30;0.85;;;;;;;;;;5053318;28;20036;-75
2023/04/13 01:53:29;;;;;;;0.70;0.70;;;;;;;;;;5053615;28;20498;-74
2023/04/13 01:55:54;;;;;;;2.20;0.65;;;;;;;;;;5053510;28;20481;-74
2023/04/13 01:58:26;;;;;;;1.98;0.95;;;;;;;;;;5053045;28;20049;-74
2023/04/13 02:00:53;;;;;;;1.67;0.70;;;;;;;;;;5053473;28;20491;-74
2023/04/13 02:03:21;;;;;;;1.20;0.82;;;;;;;;;;5053046;28;20032;-74
2023/04/13 02:05:47;;;;;;;2.35;0.85;;;;;;;;;;5053170;28;20024;-74
2023/04/13 02:08:12;;;;;;;1.63;0.80;;;;;;;;;;5053102;28;20021;-74
2023/04/13 02:10:38;;;;;;;0.82;0.65;;;;;;;;;;5053097;28;20029;-74
2023/04/13 02:13:04;;;;;;;1.13;0.77;;;;;;;;;;5052852;28;20096;-74
2023/04/13 02:15:36;;;;;;;2.63;0.88;;;;;;;;;;5052973;28;20025;-74
2023/04/13 02:18:06;;;;;;;1.77;0.70;;;;;;;;;;5053007;28;20061;-74
2023/04/13 02:20:41;;;;;;;1.40;0.85;;;;;;;;;;5053168;28;20021;-74
2023/04/13 02:23:07;;;;;;;1.02;0.80;;;;;;;;;;5052938;28;20108;-73
2023/04/13 02:25:33;;;;;;;3.50;0.82;;;;;;;;;;5051649;28;20052;-74
2023/04/13 02:27:58;;;;;;;1.58;0.90;;;;;;;;;;5052730;28;20036;-74
2023/04/13 02:30:24;;;;;;;2.65;1.00;;;;;;;;;;5052791;28;20053;-74
2023/04/13 02:32:50;;;;;;;1.55;0.85;;;;;;;;;;5052769;28;20108;-74
2023/04/13 02:35:15;;;;;;;1.30;0.85;;;;;;;;;;5052753;28;20100;-74
2023/04/13 02:37:40;;;;;;;1.42;0.98;;;;;;;;;;5052647;28;20075;-74
2023/04/13 02:40:08;;;;;;;1.65;0.90;;;;;;;;;;5052635;28;20396;-74
2023/04/13 02:42:34;;;;;;;2.78;1.00;;;;;;;;;;5052772;28;20111;-74
2023/04/13 02:45:00;;;;;;;2.03;0.80;;;;;;;;;;5052702;28;20056;-74
2023/04/13 02:47:25;;;;;;;0.98;0.60;;;;;;;;;;5052159;28;20055;-73
2023/04/13 02:49:51;;;;;;;0.60;0.60;;;;;;;;;;5052644;28;20113;-74
2023/04/13 02:52:16;;;;;;;0.95;0.70;;;;;;;;;;5052478;28;20254;-74
2023/04/13 02:54:42;;;;;;;0.93;0.70;;;;;;;;;;5052554;28;20096;-74
2023/04/13 02:57:12;;;;;;;0.98;0.70;;;;;;;;;;5052537;28;20401;-74
2023/04/13 02:59:38;;;;;;;1.65;0.68;;;;;;;;;;5052610;28;20100;-73
2023/04/13 03:02:03;;;;;;;0.85;0.70;;;;;;;;;;5052420;28;20057;-74
2023/04/13 03:04:28;;;;;;;1.20;0.70;;;;;;;;;;5052449;28;20494;-73
2023/04/13 03:06:54;;;;;;;0.60;0.60;;;;;;;;;;5051175;28;20743;-73
2023/04/13 03:09:19;;;;;;;2.05;0.70;;;;;;;;;;5051088;28;20070;-73
2023/04/13 03:11:45;;;;;;;1.00;0.60;;;;;;;;;;5052155;28;20029;-75
2023/04/13 03:14:19;;;;;;;1.95;0.60;;;;;;;;;;5052338;28;20068;-74
2023/04/13 03:16:45;;;;;;;3.22;0.70;;;;;;;;;;5052692;28;20396;-74
2023/04/13 03:19:10;;;;;;;0.98;0.70;;;;;;;;;;5052166;28;20030;-73
2023/04/13 03:21:36;;;;;;;1.45;0.63;;;;;;;;;;5052517;28;20036;-73
2023/04/13 03:24:01;;;;;;;0.85;0.63;;;;;;;;;;5052377;28;20060;-74
2023/04/13 03:26:26;;;;;;;2.67;0.65;;;;;;;;;;5052413;28;20027;-75
2023/04/13 03:28:51;;;;;;;1.20;0.40;;;;;;;;;;5054074;28;20056;-75
2023/04/13 03:31:16;;;;;;;0.57;0.50;;;;;;;;;;5055985;28;20035;-74
2023/04/13 03:33:42;;;;;;;4.43;0.60;;;;;;;;;;5054515;28;20024;-73
2023/04/13 03:36:08;;;;;;;0.63;0.50;;;;;;;;;;5055745;28;20626;-73
2023/04/13 03:38:33;;;;;;;0.60;0.40;;;;;;;;;;5054481;28;20020;-74
2023/04/13 03:40:59;;;;;;;1.77;0.60;;;;;;;;;;5055877;28;20365;-73
2023/04/13 03:43:24;;;;;;;0.43;0.40;;;;;;;;;;5055554;28;20056;-74
2023/04/13 03:45:49;;;;;;;1.00;0.50;;;;;;;;;;5055329;28;20074;-73
2023/04/13 03:48:15;;;;;;;0.57;0.50;;;;;;;;;;5055327;28;20036;-73
2023/04/13 03:50:40;;;;;;;1.07;0.60;;;;;;;;;;5055676;28;20258;-73
2023/04/13 03:53:05;;;;;;;0.63;0.50;;;;;;;;;;5055920;28;20252;-73
2023/04/13 03:55:30;;;;;;;2.23;0.47;;;;;;;;;;5055385;28;20091;-72
2023/04/13 03:57:56;;;;;;;1.30;0.60;;;;;;;;;;5055644;28;20289;-72
2023/04/13 04:00:21;;;;;;;1.15;0.40;;;;;;;;;;5055702;28;20450;-74
2023/04/13 04:02:46;;;;;;;1.42;0.50;;;;;;;;;;5055311;28;20032;-74
2023/04/13 04:05:12;;;;;;;0.85;0.40;;;;;;;;;;5055593;28;20043;-74
2023/04/13 04:07:37;;;;;;;1.20;0.50;;;;;;;;;;5055283;28;20123;-74
2023/04/13 04:10:03;;;;;;;0.63;0.40;;;;;;;;;;5055545;28;20025;-74
2023/04/13 04:12:28;;;;;;;0.95;0.60;;;;;;;;;;5055155;28;20041;-74
2023/04/13 04:14:54;;;;;;;0.93;0.60;;;;;;;;;;5055182;28;20099;-74
2023/04/13 04:17:19;;;;;;;0.65;0.35;;;;;;;;;;5053570;28;20029;-74
2023/04/13 04:19:45;;;;;;;0.40;0.40;;;;;;;;;;5055377;28;20070;-74
2023/04/13 04:22:12;;;;;;;0.40;0.40;;;;;;;;;;5055416;28;20033;-73
2023/04/13 04:24:38;;;;;;;1.00;0.45;;;;;;;;;;5057283;28;20143;-74
2023/04/13 04:27:04;;;;;;;0.60;0.57;;;;;;;;;;5058998;28;20059;-74
2023/04/13 04:29:35;;;;;;;1.42;0.50;;;;;;;;;;5058784;28;20029;-74
2023/04/13 04:32:03;;;;;;;1.08;0.55;;;;;;;;;;5058247;28;20439;-73
2023/04/13 04:34:28;;;;;;;1.83;0.43;;;;;;;;;;5058300;28;20029;-74
2023/04/13 04:36:54;;;;;;;2.05;0.40;;;;;;;;;;5059746;28;20074;-75
2023/04/13 04:39:23;;;;;;;1.20;0.60;;;;;;;;;;5057378;28;20025;-73
2023/04/13 04:41:49;;;;;;;0.88;0.55;;;;;;;;;;5058208;28;20055;-74
2023/04/13 04:44:15;;;;;;;1.70;0.70;;;;;;;;;;5058583;28;20024;-74
2023/04/13 04:46:42;;;;;;;1.70;0.60;;;;;;;;;;5058832;28;20067;-75
2023/04/13 04:49:07;;;;;;;2.03;0.60;;;;;;;;;;5057987;28;20074;-76
2023/04/13 04:51:34;;;;;;;1.33;0.47;;;;;;;;;;5057751;28;20111;-74
2023/04/13 04:54:01;;;;;;;0.57;0.57;;;;;;;;;;5058217;28;20025;-74
2023/04/13 04:56:26;;;;;;;2.15;0.80;;;;;;;;;;5057206;28;20428;-75
2023/04/13 04:58:51;;;;;;;1.30;0.73;;;;;;;;;;5057872;28;20032;-73
2023/04/13 05:01:21;;;;;;;0.63;0.52;;;;;;;;;;5055033;28;20070;-73
2023/04/13 05:03:46;;;;;;;0.50;0.50;;;;;;;;;;5053947;28;20070;-74
2023/04/13 05:06:12;;;;;;;4.22;0.80;;;;;;;;;;5054953;28;20443;-73
2023/04/13 05:08:37;;;;;;;2.25;0.70;;;;;;;;;;5054283;28;20024;-74
2023/04/13 05:11:05;;;;;;;0.73;0.50;;;;;;;;;;5053891;28;20032;-74
2023/04/13 05:13:30;;;;;;;1.48;0.57;;;;;;;;;;5054487;28;20078;-74
2023/04/13 05:15:56;;;;;;;1.83;0.60;;;;;;;;;;5054219;28;20028;-73
2023/04/13 05:18:21;;;;;;;2.00;0.50;;;;;;;;;;5053828;28;20284;-74
2023/04/13 05:20:46;;;;;;;1.20;0.70;;;;;;;;;;5054190;28;20348;-74
2023/04/13 05:23:11;;;;;;;1.90;0.60;;;;;;;;;;5053841;28;20349;-74
2023/04/13 05:25:38;;;;;;;3.80;0.90;;;;;;;;;;5053950;28;20345;-75
2023/04/13 05:28:04;;;;;;;2.95;0.68;;;;;;;;;;5054006;28;20254;-75
2023/04/13 05:30:29;;;;;;;1.30;0.80;;;;;;;;;;5055562;28;20028;-73
2023/04/13 05:32:55;;;;;;;2.63;0.90;;;;;;;;;;5052567;28;20021;-73
2023/04/13 05:35:22;;;;;;;3.45;0.70;;;;;;;;;;5054159;28;20106;-73
2023/04/13 05:37:47;;;;;;;1.30;0.60;;;;;;;;;;5053465;28;20025;-75
2023/04/13 05:40:13;;;;;;;0.60;0.60;;;;;;;;;;5053464;28;20396;-75
2023/04/13 05:42:41;;;;;;;3.80;0.90;;;;;;;;;;5053467;28;20029;-73
2023/04/13 05:45:08;;;;;;;1.77;0.80;;;;;;;;;;5051802;28;20048;-73
2023/04/13 05:47:33;;;;;;;1.45;0.60;;;;;;;;;;5051534;28;20025;-74
2023/04/13 05:49:59;;;;;;;0.73;0.68;;;;;;;;;;5053581;28;20040;-74
2023/04/13 05:52:24;;;;;;;1.57;0.70;;;;;;;;;;5053153;28;20107;-73
2023/04/13 05:54:49;;;;;;;2.37;0.70;;;;;;;;;;5053495;28;20292;-74
2023/04/13 05:57:15;;;;;;;1.43;0.63;;;;;;;;;;5053788;28;20262;-73
2023/04/13 05:59:40;;;;;;;0.93;0.60;;;;;;;;;;5053687;28;20293;-81
2023/04/13 06:02:05;;;;;;;3.78;0.90;;;;;;;;;;5054389;28;20021;-73
2023/04/13 06:04:31;;;;;;;0.85;0.52;;;;;;;;;;5053076;28;20457;-73
2023/04/13 06:06:56;;;;;;;1.17;0.70;;;;;;;;;;5052034;28;20037;-73
2023/04/13 06:09:22;;;;;;;0.85;0.57;;;;;;;;;;5053260;28;20257;-74
2023/04/13 06:11:48;;;;;;;3.15;0.90;;;;;;;;;;5053072;28;20102;-73
2023/04/13 06:14:14;;;;;;;2.28;0.70;;;;;;;;;;5053306;28;20033;-72
2023/04/13 06:16:39;;;;;;;5.63;1.20;;;;;;;;;;5053426;28;20032;-74
2023/04/13 06:19:04;;;;;;;1.73;0.75;;;;;;;;;;5052728;28;20450;-73
2023/04/13 06:21:30;;;;;;;1.42;0.80;;;;;;;;;;5053311;28;20454;-74
2023/04/13 06:23:56;;;;;;;2.50;0.82;;;;;;;;;;5053462;28;20017;-73
2023/04/13 06:26:21;;;;;;;3.00;0.80;;;;;;;;;;5051455;28;20021;-74
2023/04/13 06:28:46;;;;;;;3.33;1.00;;;;;;;;;;5052775;28;20025;-72
2023/04/13 06:31:11;;;;;;;1.25;0.70;;;;;;;;;;5052889;28;20266;-72
2023/04/13 06:33:37;;;;;;;1.90;0.83;;;;;;;;;;5052648;28;20028;-73
2023/04/13 06:36:02;;;;;;;2.10;0.80;;;;;;;;;;5053240;28;20315;-73
2023/04/13 06:38:28;;;;;;;1.83;0.70;;;;;;;;;;5052550;28;20025;-72
2023/04/13 06:40:59;;;;;;;2.20;0.80;;;;;;;;;;5052772;28;20395;-72
2023/04/13 06:43:24;;;;;;;2.20;0.77;;;;;;;;;;5052547;28;20258;-72
2023/04/13 06:45:56;;;;;;;4.38;0.70;;;;;;;;;;5053140;28;20032;-73
2023/04/13 06:48:22;;;;;;;2.55;0.60;;;;;;;;;;5051114;28;20059;-72
2023/04/13 06:50:47;;;;;;;1.55;0.60;;;;;;;;;;5051440;28;20056;-73
2023/04/13 06:53:12;;;;;;;1.40;0.60;;;;;;;;;;5052500;28;20025;-73
2023/04/13 06:55:38;;;;;;;1.67;0.80;;;;;;;;;;5051377;28;20265;-73
2023/04/13 06:58:03;;;;;;;1.57;0.70;;;;;;;;;;5052790;28;20274;-72
2023/04/13 07:00:28;;;;;;;1.70;0.85;;;;;;;;;;5051564;28;20245;-72
2023/04/13 07:02:53;;;;;;;1.67;0.43;;;;;;;;;;5054377;28;20485;-71
2023/04/13 07:05:19;;;;;;;2.30;0.55;;;;;;;;;;5056835;28;20029;-73
2023/04/13 07:07:45;;;;;;;1.15;0.52;;;;;;;;;;5056283;28;20032;-72
2023/04/13 07:10:10;;;;;;;1.30;0.60;;;;;;;;;;5056201;28;20024;-73
2023/04/13 07:12:35;;;;;;;2.92;0.47;;;;;;;;;;5056057;28;20473;-74
2023/04/13 07:15:01;;;;;;;4.88;0.80;;;;;;;;;;5056225;28;20028;-74
2023/04/13 07:17:26;;;;;;;1.47;0.70;;;;;;;;;;5055955;28;20021;-73
2023/04/13 07:19:51;;;;;;;1.35;0.60;;;;;;;;;;5057138;28;20303;-77
2023/04/13 07:22:16;;;;;;;1.50;0.60;;;;;;;;;;5055965;28;20043;-75
2023/04/13 07:24:42;;;;;;;1.27;0.57;;;;;;;;;;5056990;28;20111;-74
2023/04/13 07:27:07;;;;;;;4.13;0.80;;;;;;;;;;5056393;28;20305;-73
2023/04/13 07:29:33;;;;;;;3.58;0.90;;;;;;;;;;5056178;28;20297;-74
2023/04/13 07:32:00;;;;;;;3.35;0.77;;;;;;;;;;5055868;28;20384;-74
2023/04/13 07:34:25;;;;;;;1.85;0.60;;;;;;;;;;5055982;28;20028;-74
2023/04/13 07:36:50;;;;;;;4.10;0.60;;;;;;;;;;5055885;28;20029;-74
2023/04/13 07:39:16;;;;;;;1.98;0.52;;;;;;;;;;5055766;28;20281;-74
2023/04/13 07:41:41;;;;;;;3.22;0.90;;;;;;;;;;5056599;28;20025;-76
2023/04/13 07:44:06;;;;;;;2.38;0.80;;;;;;;;;;5056090;28;20490;-73
2023/04/13 07:46:32;;;;;;;6.45;1.10;;;;;;;;;;5053978;28;20059;-74
2023/04/13 07:48:59;;;;;;;1.95;0.60;;;;;;;;;;5055425;28;20017;-74
2023/04/13 07:51:25;;;;;;;2.13;0.80;;;;;;;;;;5055404;28;20024;-74
2023/04/13 07:53:54;;;;;;;4.43;0.70;;;;;;;;;;5055215;28;20025;-74
2023/04/13 07:56:20;;;;;;;1.52;0.80;;;;;;;;;;5054076;28;20025;-74
2023/04/13 07:58:45;;;;;;;1.40;0.55;;;;;;;;;;5055223;28;20120;-74
2023/04/13 08:01:11;;;;;;;3.60;0.70;;;;;;;;;;5053901;28;20457;-73
2023/04/13 08:03:36;;;;;;;1.55;0.63;;;;;;;;;;5055268;28;20669;-74
2023/04/13 08:06:09;;;;;;;1.55;0.60;;;;;;;;;;5055355;28;20017;-74
2023/04/13 08:08:34;;;;;;;3.70;0.73;;;;;;;;;;5055331;28;20017;-74
2023/04/13 08:11:00;;;;;;;1.83;0.70;;;;;;;;;;5053684;28;20028;-74
2023/04/13 08:13:27;;;;;;;2.72;0.70;;;;;;;;;;5053095;28;20467;-74
2023/04/13 08:15:55;;;;;;;1.73;0.77;;;;;;;;;;5055354;28;20430;-77
2023/04/13 08:18:21;;;;;;;1.10;0.60;;;;;;;;;;5055126;28;20021;-74
2023/04/13 08:20:47;;;;;;;2.55;0.73;;;;;;;;;;5055146;28;20025;-74
2023/04/13 08:23:13;;;;;;;0.77;0.60;;;;;;;;;;5055127;28;20516;-72
2023/04/13 08:25:39;;;;;;;1.92;0.73;;;;;;;;;;5054733;28;20053;-72
2023/04/13 08:28:05;;;;;;;2.72;0.77;;;;;;;;;;5054749;28;20041;-71
2023/04/13 08:30:34;;;;;;;3.65;0.60;;;;;;;;;;5054619;28;20021;-72
2023/04/13 08:33:00;;;;;;;2.25;0.55;;;;;;;;;;5054679;28;20057;-73
2023/04/13 08:35:25;;;;;;;1.48;0.70;;;;;;;;;;5054612;28;20029;-72
2023/04/13 08:37:52;;;;;;;1.95;0.50;;;;;;;;;;5054541;28;20025;-73
2023/04/13 08:40:18;;;;;;;0.75;0.60;;;;;;;;;;5054553;28;20480;-74
2023/04/13 08:42:45;;;;;;;4.40;0.82;;;;;;;;;;5054786;28;20441;-73
2023/04/13 08:45:11;;;;;;;2.10;0.70;;;;;;;;;;5054566;28;20388;-73
2023/04/13 08:47:39;;;;;;;2.58;0.60;;;;;;;;;;5054047;28;20032;-73
2023/04/13 08:50:06;;;;;;;3.97;0.90;;;;;;;;;;5054637;28;20052;-72
2023/04/13 08:52:33;;;;;;;2.25;0.70;;;;;;;;;;5054809;28;20024;-74
2023/04/13 08:55:01;;;;;;;1.40;0.60;;;;;;;;;;5054454;28;20542;-73
2023/04/13 08:57:28;;;;;;;1.75;0.70;;;;;;;;;;5052813;28;20083;-73
2023/04/13 08:59:55;;;;;;;1.85;0.65;;;;;;;;;;5054281;28;20024;-73
2023/04/13 09:02:23;;;;;;;3.45;0.70;;;;;;;;;;5054165;28;20025;-73
2023/04/13 09:04:51;;;;;;;2.10;0.68;;;;;;;;;;5054521;28;20056;-72
2023/04/13 09:07:25;;;;;;;3.15;0.85;;;;;;;;;;5052690;28;20025;-72
2023/04/13 09:09:55;;;;;;;2.33;0.60;;;;;;;;;;5054376;28;20025;-73
2023/04/13 09:12:20;;;;;;;1.90;0.75;;;;;;;;;;5053704;28;20408;-72
2023/04/13 09:14:46;;;;;;;0.55;0.50;;;;;;;;;;5054283;28;20033;-72
2023/04/13 09:17:33;;;;;;;2.90;0.77;;;;;;;;;;5053764;28;20020;-74
2023/04/13 09:20:21;;;;;;;1.80;0.75;;;;;;;;;;5053988;28;20036;-73
2023/04/13 09:22:49;;;;;;;2.40;0.80;;;;;;;;;;5053847;28;20053;-73
2023/04/13 09:25:23;;;;;;;0.63;0.57;;;;;;;;;;5052956;28;20154;-73
2023/04/13 09:27:50;;;;;;;1.55;0.75;;;;;;;;;;5053558;28;20099;-73
2023/04/13 09:30:20;;;;;;;0.90;0.60;;;;;;;;;;5053594;28;20502;-71
2023/04/13 09:32:45;;;;;;;4.45;0.85;;;;;;;;;;5053550;28;20029;-71
2023/04/13 09:35:12;;;;;;;3.05;0.75;;;;;;;;;;5053594;28;20029;-73
2023/04/13 09:37:41;;;;;;;1.55;0.80;;;;;;;;;;5053594;28;20107;-73
2023/04/13 09:40:10;;;;;;;3.08;0.80;;;;;;;;;;5053541;28;20017;-73
2023/04/13 09:42:40;;;;;;;1.08;0.55;;;;;;;;;;5053378;28;20027;-73
2023/04/13 09:45:06;;;;;;;1.20;0.70;;;;;;;;;;5053201;28;20025;-73
2023/04/13 09:47:37;;;;;;;2.28;0.80;;;;;;;;;;5052915;28;20029;-73
2023/04/13 09:50:04;;;;;;;4.65;0.80;;;;;;;;;;5053345;28;20029;-72
2023/04/13 09:52:30;;;;;;;3.33;0.70;;;;;;;;;;5051847;28;20025;-72
2023/04/13 09:54:57;;;;;;;2.80;0.68;;;;;;;;;;5053415;28;20078;-72
2023/04/13 09:57:24;;;;;;;1.45;0.80;;;;;;;;;;5051915;28;20171;-72
2023/04/13 09:59:50;;;;;;;3.22;0.90;;;;;;;;;;5053290;28;20158;-72
2023/04/13 10:02:18;;;;;;;3.78;0.68;;;;;;;;;;5053341;28;20029;-72
2023/04/13 10:04:43;;;;;;;1.35;0.63;;;;;;;;;;5052002;28;20024;-73
2023/04/13 10:07:10;;;;;;;0.85;0.70;;;;;;;;;;5053741;28;20021;-73
2023/04/13 10:09:35;;;;;;;1.30;0.70;;;;;;;;;;5053170;28;20025;-73
2023/04/13 10:12:02;;;;;;;3.90;0.80;;;;;;;;;;5052782;28;20033;-75
2023/04/13 10:14:33;;;;;;;5.05;0.90;;;;;;;;;;5053111;28;20029;-74
2023/04/13 10:17:36;;;;;;;2.88;0.75;;;;;;;;;;5053114;28;20037;-73
2023/04/13 10:20:10;;;;;;;2.35;0.70;;;;;;;;;;5052860;28;20028;-74
2023/04/13 10:22:37;;;;;;;1.98;0.70;;;;;;;;;;5053144;28;20030;-74
2023/04/13 10:25:05;;;;;;;0.45;0.45;;;;;;;;;;5051987;28;20028;-78
2023/04/13 10:27:31;;;;;;;0.82;0.50;;;;;;;;;;5052822;28;20369;-73
2023/04/13 10:29:57;;;;;;;1.50;0.70;;;;;;;;;;5053115;28;20024;-72
2023/04/13 10:32:24;;;;;;;2.50;0.70;;;;;;;;;;5052709;28;20021;-73
2023/04/13 10:34:50;;;;;;;3.13;0.85;;;;;;;;;;5053117;28;20052;-73
2023/04/13 10:37:27;;;;;;;1.52;0.90;;;;;;;;;;5055475;28;20476;-73
2023/04/13 10:40:07;;;;;;;1.67;0.80;;;;;;;;;;5057317;28;20388;-73
2023/04/13 10:42:43;;;;;;;0.73;0.60;;;;;;;;;;5057072;28;20544;-73
2023/04/13 10:45:25;;;;;;;3.55;0.73;;;;;;;;;;5057359;28;20388;-72
2023/04/13 10:47:52;;;;;;;1.73;0.75;;;;;;;;;;5057630;28;20067;-73
2023/04/13 10:50:21;;;;;;;2.80;0.60;;;;;;;;;;5057213;28;20029;-72
2023/04/13 10:53:22;;;;;;;2.40;0.70;;;;;;;;;;5056748;28;20032;-73
2023/04/13 10:55:48;;;;;;;2.47;0.90;;;;;;;;;;5056522;28;20086;-73
2023/04/13 10:58:15;;;;;;;1.58;0.80;;;;;;;;;;5057109;28;20025;-72
2023/04/13 11:00:43;;;;;;;3.55;0.80;;;;;;;;;;5058547;28;20036;-73
2023/04/13 11:03:09;;;;;;;0.77;0.55;;;;;;;;;;5062272;28;20025;-74
2023/04/13 11:05:34;;;;;;;1.60;0.73;;;;;;;;;;5062052;28;20036;-73
2023/04/13 11:08:00;;;;;;;3.17;0.68;;;;;;;;;;5059951;28;20021;-72
2023/04/13 11:10:26;;;;;;;2.75;0.80;;;;;;;;;;5060256;28;20032;-73
2023/04/13 11:12:55;;;;;;;1.85;0.50;;;;;;;;;;5058762;28;20059;-73
2023/04/13 11:15:22;;;;;;;2.05;0.70;;;;;;;;;;5056505;28;20020;-73
2023/04/13 11:17:54;;;;;;;2.30;0.82;;;;;;;;;;5056633;28;20056;-73
2023/04/13 11:20:31;;;;;;;2.83;0.88;;;;;;;;;;5056327;28;20028;-73
2023/04/13 11:22:57;;;;;;;2.10;0.65;;;;;;;;;;5055374;28;20111;-74
2023/04/13 11:25:22;;;;;;;4.22;0.70;;;;;;;;;;5056646;28;20052;-73
2023/04/13 11:27:54;;;;;;;1.42;0.70;;;;;;;;;;5056256;28;20433;-72
2023/04/13 11:30:21;;;;;;;2.97;1.38;;;;;;;;;;5056145;28;20487;-72
2023/04/13 11:32:47;;;;;;;1.10;0.60;;;;;;;;;;5055965;28;20025;-73
2023/04/13 11:35:13;;;;;;;1.45;0.60;;;;;;;;;;5056075;28;20021;-73
2023/04/13 11:37:41;;;;;;;0.82;0.50;;;;;;;;;;5056326;28;20102;-72
2023/04/13 11:40:15;;;;;;;4.32;0.90;;;;;;;;;;5056122;28;20025;-72
2023/04/13 11:42:41;;;;;;;3.08;0.70;;;;;;;;;;5056434;28;20396;-72
2023/04/13 11:45:07;;;;;;;1.80;0.70;;;;;;;;;;5055814;28;20032;-72
2023/04/13 11:47:33;;;;;;;3.63;1.10;;;;;;;;;;5055011;28;20495;-74
2023/04/13 11:50:00;;;;;;;2.83;0.68;;;;;;;;;;5053877;28;20488;-73
2023/04/13 11:52:25;;;;;;;2.33;0.75;;;;;;;;;;5054382;28;20021;-73
2023/04/13 11:54:52;;;;;;;1.50;0.80;;;;;;;;;;5055609;28;20095;-73
2023/04/13 11:57:18;;;;;;;2.30;0.98;;;;;;;;;;5055866;28;20549;-73
2023/04/13 11:59:43;;;;;;;1.48;0.60;;;;;;;;;;5055451;28;20032;-73
2023/04/13 12:02:09;;;;;;;2.33;0.88;;;;;;;;;;5055466;28;20059;-73
2023/04/13 12:04:39;;;;;;;3.13;0.90;;;;;;;;;;5055565;28;20029;-73
2023/04/13 12:07:14;;;;;;;2.83;0.80;;;;;;;;;;5055575;28;20082;-71
2023/04/13 12:09:43;;;;;;;2.05;0.57;;;;;;;;;;5054860;28;20082;-72
2023/04/13 12:12:16;;;;;;;4.40;1.05;;;;;;;;;;5055263;28;20111;-72
2023/04/13 12:14:41;;;;;;;3.58;0.80;;;;;;;;;;5053895;28;20115;-71
2023/04/13 12:17:11;;;;;;;1.70;0.70;;;;;;;;;;5055244;28;20064;-72
2023/04/13 12:19:40;;;;;;;1.10;0.60;;;;;;;;;;5055190;28;20434;-73
2023/04/13 12:22:05;;;;;;;0.95;0.55;;;;;;;;;;5053910;28;20017;-72
2023/04/13 12:24:34;;;;;;;4.40;0.75;;;;;;;;;;5055157;28;20032;-73
2023/04/13 12:27:03;;;;;;;1.65;0.90;;;;;;;;;;5053627;28;20016;-73
2023/04/13 12:29:29;;;;;;;3.28;0.60;;;;;;;;;;5055338;28;20364;-73
2023/04/13 12:32:03;;;;;;;2.58;0.70;;;;;;;;;;5054983;28;20027;-73
2023/04/13 12:34:29;;;;;;;1.85;0.65;;;;;;;;;;5055368;28;20384;-73
2023/04/13 12:36:54;;;;;;;2.40;0.80;;;;;;;;;;5054963;28;20021;-72
2023/04/13 12:39:19;;;;;;;3.10;0.88;;;;;;;;;;5054968;28;20057;-73
2023/04/13 12:41:45;;;;;;;3.33;0.70;;;;;;;;;;5054694;28;20020;-73
2023/04/13 12:44:11;;;;;;;1.58;0.70;;;;;;;;;;5054643;28;20484;-72
2023/04/13 12:46:36;;;;;;;2.30;0.70;;;;;;;;;;5053234;28;20021;-74
2023/04/13 12:49:01;;;;;;;2.37;0.70;;;;;;;;;;5054283;28;20476;-73
2023/04/13 12:51:27;;;;;;;2.63;0.80;;;;;;;;;;5054753;28;20767;-73
2023/04/13 12:53:52;;;;;;;1.03;0.60;;;;;;;;;;5054467;28;20028;-72
2023/04/13 12:56:17;;;;;;;1.50;0.60;;;;;;;;;;5053080;28;20345;-74
2023/04/13 12:58:42;;;;;;;0.77;0.53;;;;;;;;;;5054468;28;20032;-73
2023/04/13 13:01:08;;;;;;;2.47;0.65;;;;;;;;;;5054323;28;20258;-72
2023/04/13 13:03:35;;;;;;;2.50;0.70;;;;;;;;;;5054239;28;20104;-73
2023/04/13 13:06:03;;;;;;;2.13;0.80;;;;;;;;;;5053052;28;20032;-74
2023/04/13 13:08:28;;;;;;;1.17;0.52;;;;;;;;;;5054499;28;20082;-74
2023/04/13 13:10:53;;;;;;;5.30;1.00;;;;;;;;;;5054876;28;20037;-73
2023/04/13 13:13:18;;;;;;;1.00;0.60;;;;;;;;;;5052689;28;20319;-71
2023/04/13 13:15:43;;;;;;;2.33;0.90;;;;;;;;;;5055197;28;20273;-73
2023/04/13 13:18:10;;;;;;;2.63;0.70;;;;;;;;;;5054022;28;20029;-72
2023/04/13 13:20:39;;;;;;;1.73;0.80;;;;;;;;;;5054472;28;20253;-73
2023/04/13 13:23:05;;;;;;;1.88;0.80;;;;;;;;;;5053991;28;20032;-72
2023/04/13 13:25:30;;;;;;;2.00;0.80;;;;;;;;;;5054017;28;20108;-74
2023/04/13 13:27:56;;;;;;;3.63;0.60;;;;;;;;;;5055011;28;20027;-72
2023/04/13 13:30:22;;;;;;;3.35;0.70;;;;;;;;;;5053901;28;20036;-73
2023/04/13 13:32:47;;;;;;;4.40;0.70;;;;;;;;;;5053683;28;20021;-71
2023/04/13 13:35:13;;;;;;;2.17;0.70;;;;;;;;;;5053754;28;20111;-71
2023/04/13 13:37:38;;;;;;;4.75;0.77;;;;;;;;;;5053615;28;20637;-73
2023/04/13 13:40:11;;;;;;;3.28;0.90;;;;;;;;;;5054310;28;20025;-72
2023/04/13 13:42:36;;;;;;;3.35;0.80;;;;;;;;;;5053487;28;20025;-72
2023/04/13 13:45:02;;;;;;;1.77;0.70;;;;;;;;;;5053499;28;20427;-72
2023/04/13 13:47:28;;;;;;;1.90;0.68;;;;;;;;;;5053350;28;20633;-72
2023/04/13 13:49:53;;;;;;;2.22;0.70;;;;;;;;;;5053261;28;20098;-71
2023/04/13 13:52:18;;;;;;;1.37;0.60;;;;;;;;;;5052069;28;20017;-72
2023/04/13 13:54:43;;;;;;;2.43;0.60;;;;;;;;;;5053507;28;20258;-72
2023/04/13 13:57:08;;;;;;;2.53;0.80;;;;;;;;;;5052324;28;20328;-71
2023/04/13 13:59:34;;;;;;;2.97;1.03;;;;;;;;;;5052212;28;20094;-72
2023/04/13 14:01:59;;;;;;;2.83;0.73;;;;;;;;;;5052248;28;20262;-72
2023/04/13 14:04:24;;;;;;;0.85;0.50;;;;;;;;;;5053437;28;20672;-72
2023/04/13 14:06:50;;;;;;;1.95;0.95;;;;;;;;;;5052095;28;20116;-73
2023/04/13 14:09:15;;;;;;;2.40;0.63;;;;;;;;;;5053381;28;20443;-72
2023/04/13 14:11:41;;;;;;;2.75;1.00;;;;;;;;;;5052663;28;20028;-72
2023/04/13 14:14:06;;;;;;;1.90;0.60;;;;;;;;;;5053325;28;20392;-70
2023/04/13 14:16:31;;;;;;;2.53;0.80;;;;;;;;;;5053335;28;20741;-73
2023/04/13 14:18:56;;;;;;;2.60;0.80;;;;;;;;;;5053221;28;20622;-73
2023/04/13 14:21:22;;;;;;;2.08;0.50;;;;;;;;;;5052983;28;20660;-73
2023/04/13 14:23:49;;;;;;;1.83;0.70;;;;;;;;;;5052922;28;20021;-72
2023/04/13 14:26:14;;;;;;;2.42;0.80;;;;;;;;;;5053300;28;20021;-72
2023/04/13 14:28:40;;;;;;;1.65;0.63;;;;;;;;;;5051623;28;20035;-73
2023/04/13 14:31:05;;;;;;;2.65;0.70;;;;;;;;;;5053402;28;20043;-73
2023/04/13 14:33:30;;;;;;;1.80;0.80;;;;;;;;;;5053317;28;20113;-72
2023/04/13 14:35:55;;;;;;;0.93;0.60;;;;;;;;;;5053184;28;20282;-74
2023/04/13 14:38:21;;;;;;;1.83;0.70;;;;;;;;;;5052599;28;20392;-73
2023/04/13 14:40:46;;;;;;;2.92;0.90;;;;;;;;;;5053027;28;20620;-73
2023/04/13 14:43:12;;;;;;;1.48;0.88;;;;;;;;;;5052627;28;20020;-74